createdAt,value
2018-03-11T00:00:50.684Z,18.10
2018-03-11T00:03:19.750Z,17.92
2018-03-11T00:05:49.578Z,16.05
2018-03-11T00:08:19.454Z,15.77
2018-03-11T00:10:48.518Z,15.77
2018-03-11T00:13:17.581Z,17.20
2018-03-11T00:15:46.690Z,17.25
2018-03-11T00:18:16.522Z,19.83
2018-03-11T00:20:46.366Z,19.20
2018-03-11T00:23:15.446Z,19.02
2018-03-11T00:25:44.507Z,16.17
2018-03-11T00:28:14.406Z,17.20
2018-03-11T00:30:43.465Z,17.23
2018-03-11T00:33:12.547Z,17.73
2018-03-11T00:35:42.425Z,19.50
2018-03-11T00:38:11.486Z,19.10
2018-03-11T00:40:41.373Z,19.58
2018-03-11T00:43:10.467Z,17.92
2018-03-11T00:45:39.535Z,20.65
2018-03-11T00:48:09.365Z,16.67
2018-03-11T00:50:39.198Z,19.85
2018-03-11T00:53:08.363Z,19.95
2018-03-11T00:55:38.193Z,18.50
2018-03-11T00:58:07.269Z,20.00
2018-03-11T01:00:36.333Z,20.65
2018-03-11T01:03:05.461Z,19.35
2018-03-11T01:05:35.292Z,18.12
2018-03-11T01:08:05.159Z,18.27
2018-03-11T01:10:34.220Z,19.27
2018-03-11T01:13:04.049Z,17.60
2018-03-11T01:15:34.213Z,17.45
2018-03-11T01:18:03.269Z,16.80
2018-03-11T01:20:32.339Z,17.17
2018-03-11T01:23:01.426Z,16.20
2018-03-11T01:25:31.310Z,18.12
2018-03-11T01:28:00.374Z,18.85
2018-03-11T01:30:29.433Z,19.73
2018-03-11T01:32:58.530Z,18.17
2018-03-11T01:35:27.598Z,17.62
2018-03-11T01:37:56.661Z,17.05
2018-03-11T01:40:25.724Z,18.75
2018-03-11T01:42:54.814Z,17.30
2018-03-11T01:45:24.780Z,18.30
2018-03-11T01:47:53.871Z,18.00
2018-03-11T01:50:23.093Z,16.62
2018-03-11T01:53:14.858Z,17.08
2018-03-11T01:55:44.233Z,17.50
2018-03-11T01:58:14.067Z,16.10
2018-03-11T02:00:43.149Z,15.45
2018-03-11T02:03:12.218Z,15.82
2018-03-11T02:05:41.305Z,14.85
2018-03-11T02:08:10.370Z,17.00
2018-03-11T02:10:39.490Z,16.73
2018-03-11T02:13:08.626Z,16.10
2018-03-11T02:15:37.745Z,16.25
2018-03-11T02:18:06.917Z,16.17
2018-03-11T02:20:35.909Z,14.90
2018-03-11T02:23:04.990Z,14.25
2018-03-11T02:25:34.054Z,14.80
2018-03-11T02:28:03.886Z,14.35
2018-03-11T02:30:33.760Z,14.00
2018-03-11T02:33:02.824Z,14.18
2018-03-11T02:35:32.682Z,15.23
2018-03-11T02:38:01.763Z,15.70
2018-03-11T02:40:31.591Z,14.25
2018-03-11T02:43:01.467Z,14.07
2018-03-11T02:45:30.530Z,16.42
2018-03-11T02:48:00.367Z,15.65
2018-03-11T02:50:29.475Z,15.15
2018-03-11T02:52:59.306Z,15.35
2018-03-11T02:55:29.133Z,13.98
2018-03-11T02:57:58.965Z,13.90
2018-03-11T03:00:28.033Z,15.82
2018-03-11T03:02:57.088Z,14.20
2018-03-11T03:05:26.150Z,15.70
2018-03-11T03:07:55.215Z,14.15
2018-03-11T03:10:24.278Z,13.52
2018-03-11T03:12:53.737Z,14.85
2018-03-11T03:15:22.806Z,13.57
2018-03-11T03:17:51.899Z,13.13
2018-03-11T03:20:20.998Z,17.10
2018-03-11T03:22:50.066Z,16.02
2018-03-11T03:25:19.894Z,16.77
2018-03-11T03:27:48.958Z,15.10
2018-03-11T03:30:18.023Z,15.48
2018-03-11T03:32:47.103Z,14.20
2018-03-11T03:35:16.933Z,14.27
2018-03-11T03:37:46.762Z,14.13
2018-03-11T03:40:16.590Z,14.85
2018-03-11T03:42:46.420Z,15.00
2018-03-11T03:45:16.278Z,14.05
2018-03-11T03:47:45.345Z,15.70
2018-03-11T03:50:14.463Z,19.33
2018-03-11T03:52:44.306Z,19.42
2018-03-11T03:55:14.169Z,21.60
2018-03-11T03:57:43.240Z,20.88
2018-03-11T04:00:13.065Z,22.65
2018-03-11T04:02:42.893Z,28.62
2018-03-11T04:05:12.727Z,30.67
2018-03-11T04:07:41.790Z,23.08
2018-03-11T04:10:11.623Z,21.27
2018-03-11T04:12:40.689Z,22.17
2018-03-11T04:15:09.754Z,20.40
2018-03-11T04:17:39.111Z,19.08
2018-03-11T04:20:08.179Z,18.00
2018-03-11T04:22:37.262Z,17.23
2018-03-11T04:25:06.325Z,17.27
2018-03-11T04:27:36.158Z,15.05
2018-03-11T04:30:05.221Z,15.38
2018-03-11T04:32:34.384Z,17.12
2018-03-11T04:35:03.474Z,16.10
2018-03-11T04:37:33.298Z,16.17
2018-03-11T04:40:03.166Z,16.90
2018-03-11T04:42:32.230Z,14.43
2018-03-11T04:45:01.293Z,15.98
2018-03-11T04:47:30.388Z,15.95
2018-03-11T04:49:59.530Z,16.90
2018-03-11T04:52:28.594Z,16.55
2018-03-11T04:54:57.650Z,15.70
2018-03-11T04:57:26.714Z,16.35
2018-03-11T04:59:55.834Z,14.57
2018-03-11T05:02:24.896Z,14.85
2018-03-11T05:04:53.968Z,15.85
2018-03-11T05:07:23.106Z,14.15
2018-03-11T05:09:52.213Z,15.30
2018-03-11T05:12:21.283Z,14.87
2018-03-11T05:14:50.366Z,14.73
2018-03-11T05:17:20.199Z,14.27
2018-03-11T05:19:50.030Z,15.02
2018-03-11T05:22:19.962Z,16.80
2018-03-11T05:24:49.795Z,16.25
2018-03-11T05:27:18.854Z,14.73
2018-03-11T05:29:48.685Z,15.75
2018-03-11T05:32:17.787Z,16.90
2018-03-11T05:34:46.854Z,15.55
2018-03-11T05:37:15.921Z,15.23
2018-03-11T05:39:44.998Z,14.70
2018-03-11T05:42:14.057Z,15.25
2018-03-11T05:44:43.923Z,15.07
2018-03-11T05:47:13.021Z,14.75
2018-03-11T05:49:42.083Z,15.40
2018-03-11T05:52:11.158Z,14.40
2018-03-11T05:54:40.990Z,15.13
2018-03-11T05:57:10.087Z,18.08
2018-03-11T05:59:39.177Z,18.27
2018-03-11T06:02:09.001Z,18.83
2018-03-11T06:04:39.093Z,18.12
2018-03-11T06:07:08.154Z,18.70
2018-03-11T06:09:37.216Z,19.23
2018-03-11T06:12:06.289Z,19.35
2018-03-11T06:14:35.380Z,20.45
2018-03-11T06:17:05.210Z,22.60
2018-03-11T06:19:34.297Z,24.05
2018-03-11T06:22:03.397Z,27.62
2018-03-11T06:24:32.470Z,27.67
2018-03-11T06:27:01.533Z,34.70
2018-03-11T06:29:31.393Z,35.70
2018-03-11T06:32:00.473Z,40.15
2018-03-11T06:34:30.330Z,31.90
2018-03-11T06:36:59.502Z,36.13
2018-03-11T06:39:28.570Z,35.90
2018-03-11T06:41:57.626Z,34.83
2018-03-11T06:44:27.457Z,39.08
2018-03-11T06:46:57.285Z,41.95
2018-03-11T06:49:27.102Z,38.63
2018-03-11T06:51:56.174Z,36.20
2018-03-11T06:54:26.006Z,37.58
2018-03-11T06:56:55.078Z,38.17
2018-03-11T06:59:24.411Z,38.33
2018-03-11T07:01:53.475Z,40.15
2018-03-11T07:04:22.541Z,37.38
2018-03-11T07:06:51.608Z,34.72
2018-03-11T07:09:21.438Z,34.35
2018-03-11T07:11:51.265Z,33.58
2018-03-11T07:14:21.090Z,32.85
2018-03-11T07:16:50.970Z,32.38
2018-03-11T07:19:20.038Z,31.83
2018-03-11T07:21:49.153Z,33.47
2018-03-11T07:24:18.218Z,33.80
2018-03-11T07:26:47.278Z,31.40
2018-03-11T07:29:16.392Z,30.52
2018-03-11T07:31:45.452Z,32.75
2018-03-11T07:34:14.517Z,31.00
2018-03-11T07:36:43.586Z,31.80
2018-03-11T07:39:13.425Z,31.75
2018-03-11T07:41:43.258Z,30.12
2018-03-11T07:44:12.321Z,30.12
2018-03-11T07:46:41.392Z,29.95
2018-03-11T07:49:10.453Z,28.15
2018-03-11T07:51:39.518Z,29.33
2018-03-11T07:54:08.631Z,29.12
2018-03-11T07:56:37.694Z,30.02
2018-03-11T07:59:06.818Z,29.37
2018-03-11T08:01:36.654Z,28.15
2018-03-11T08:04:06.510Z,29.77
2018-03-11T08:06:35.576Z,28.85
2018-03-11T08:09:05.474Z,29.65
2018-03-11T08:11:34.571Z,26.92
2018-03-11T08:14:03.629Z,25.98
2018-03-11T08:16:33.462Z,28.77
2018-03-11T08:19:03.294Z,26.92
2018-03-11T08:21:32.362Z,26.80
2018-03-11T08:24:01.426Z,26.90
2018-03-11T08:26:30.496Z,26.10
2018-03-11T08:28:59.573Z,26.65
2018-03-11T08:31:28.853Z,27.02
2018-03-11T08:33:57.930Z,28.27
2018-03-11T08:36:27.769Z,26.42
2018-03-11T08:38:57.745Z,25.60
2018-03-11T08:41:26.826Z,25.42
2018-03-11T08:43:56.062Z,26.60
2018-03-11T08:46:25.143Z,26.25
2018-03-11T08:48:54.246Z,26.48
2018-03-11T08:51:24.207Z,23.85
2018-03-11T08:53:53.396Z,26.27
2018-03-11T08:56:23.260Z,28.08
2018-03-11T08:58:52.342Z,27.73
2018-03-11T09:01:21.422Z,23.62
2018-03-11T09:03:51.275Z,24.70
2018-03-11T09:06:20.401Z,25.58
2018-03-11T09:08:49.483Z,23.83
2018-03-11T09:11:19.335Z,23.02
2018-03-11T09:13:48.441Z,22.40
2018-03-11T09:16:17.554Z,24.33
2018-03-11T09:18:46.637Z,23.58
2018-03-11T09:21:16.482Z,23.57
2018-03-11T09:23:45.570Z,27.35
2018-03-11T09:26:15.422Z,23.15
2018-03-11T09:28:44.511Z,22.20
2018-03-11T09:31:13.597Z,21.80
2018-03-11T09:33:42.680Z,21.63
2018-03-11T09:36:11.765Z,22.00
2018-03-11T09:38:40.849Z,22.40
2018-03-11T09:41:10.699Z,21.03
2018-03-11T09:43:39.789Z,21.02
2018-03-11T09:46:09.658Z,21.67
2018-03-11T09:48:38.743Z,20.20
2018-03-11T09:51:07.884Z,19.20
2018-03-11T09:53:36.966Z,17.70
2018-03-11T09:56:06.081Z,17.70
2018-03-11T09:58:35.635Z,17.40
2018-03-11T10:01:04.725Z,16.90
2018-03-11T10:03:33.852Z,17.57
2018-03-11T10:06:03.701Z,17.23
2018-03-11T10:08:32.816Z,15.57
2018-03-11T10:11:01.935Z,15.70
2018-03-11T10:13:31.016Z,18.23
2018-03-11T10:16:00.099Z,14.40
2018-03-11T10:18:29.177Z,14.00
2018-03-11T10:20:58.253Z,14.73
2018-03-11T10:23:27.330Z,14.50
2018-03-11T10:25:56.411Z,15.97
2018-03-11T10:28:26.282Z,14.67
2018-03-11T10:30:55.370Z,13.57
2018-03-11T10:33:24.552Z,13.43
2018-03-11T10:35:53.674Z,12.40
2018-03-11T10:38:23.567Z,10.87
2018-03-11T10:40:52.650Z,11.30
2018-03-11T10:43:21.734Z,11.23
2018-03-11T10:45:50.826Z,11.00
2018-03-11T10:48:20.777Z,9.30
2018-03-11T10:50:50.677Z,8.63
2018-03-11T10:53:19.750Z,8.30
2018-03-11T10:55:48.819Z,8.57
2018-03-11T10:58:18.658Z,9.07
2018-03-11T11:00:52.566Z,9.60
2018-03-11T11:03:27.931Z,9.87
2018-03-11T11:05:57.766Z,8.70
2018-03-11T11:08:26.854Z,9.10
2018-03-11T11:10:56.702Z,9.73
2018-03-11T11:13:25.786Z,10.00
2018-03-11T11:15:55.633Z,8.90
2018-03-11T11:18:25.469Z,8.60
2018-03-11T11:20:54.565Z,9.20
2018-03-11T11:23:24.409Z,10.50
2018-03-11T11:25:53.538Z,8.30
2018-03-11T11:28:22.607Z,7.27
2018-03-11T11:30:52.442Z,7.70
2018-03-11T11:33:22.278Z,7.30
2018-03-11T11:35:51.350Z,7.97
2018-03-11T11:38:20.420Z,8.67
2018-03-11T11:40:49.565Z,9.17
2018-03-11T11:43:18.651Z,9.60
2018-03-11T11:45:47.849Z,9.67
2018-03-11T11:48:16.930Z,10.67
2018-03-11T11:50:46.802Z,10.33
2018-03-11T11:53:15.887Z,10.03
2018-03-11T11:55:45.034Z,9.60
2018-03-11T11:58:14.109Z,9.30
2018-03-11T12:00:43.988Z,8.83
2018-03-11T12:03:13.067Z,9.73
2018-03-11T12:05:42.141Z,10.50
2018-03-11T12:08:12.030Z,10.07
2018-03-11T12:10:41.114Z,10.80
2018-03-11T12:13:10.200Z,9.80
2018-03-11T12:15:39.278Z,10.23
2018-03-11T12:18:08.357Z,10.43
2018-03-11T12:20:38.198Z,10.40
2018-03-11T12:23:07.271Z,8.20
2018-03-11T12:25:36.338Z,9.50
2018-03-11T12:28:05.415Z,9.17
2018-03-11T12:30:34.541Z,8.80
2018-03-11T12:33:03.622Z,7.83
2018-03-11T12:35:32.689Z,8.70
2018-03-11T12:38:02.526Z,9.07
2018-03-11T12:40:32.399Z,9.03
2018-03-11T12:43:02.238Z,9.63
2018-03-11T12:45:31.322Z,9.13
2018-03-11T12:48:00.472Z,9.53
2018-03-11T12:50:29.551Z,9.10
2018-03-11T12:52:58.627Z,7.80
2018-03-11T12:55:28.489Z,8.20
2018-03-11T12:57:57.509Z,8.73
2018-03-11T13:00:26.610Z,9.00
2018-03-11T13:02:55.647Z,7.67
2018-03-11T13:05:24.671Z,6.13
2018-03-11T13:07:54.514Z,7.00
2018-03-11T13:10:24.302Z,7.67
2018-03-11T13:12:53.333Z,7.60
2018-03-11T13:15:22.354Z,7.40
2018-03-11T13:17:52.143Z,7.80
2018-03-11T13:20:39.226Z,7.50
2018-03-11T13:23:08.291Z,7.07
2018-03-11T13:25:37.387Z,8.17
2018-03-11T13:28:25.068Z,8.07
2018-03-11T13:30:54.117Z,7.50
2018-03-11T13:33:41.201Z,7.33
2018-03-11T13:36:10.402Z,7.70
2018-03-11T13:38:57.367Z,7.87
2018-03-11T13:41:27.226Z,7.50
2018-03-11T13:43:56.254Z,8.07
2018-03-11T13:46:44.139Z,8.40
2018-03-11T13:49:13.170Z,7.80
2018-03-11T13:52:00.243Z,7.63
2018-03-11T13:54:29.282Z,7.07
2018-03-11T13:57:16.294Z,7.83
2018-03-11T13:59:45.362Z,6.30
2018-03-11T14:02:14.438Z,6.30
2018-03-11T14:04:43.506Z,8.50
2018-03-11T14:07:12.599Z,7.67
2018-03-11T14:09:41.707Z,6.73
2018-03-11T14:12:10.770Z,8.17
2018-03-11T14:14:39.846Z,8.03
2018-03-11T14:17:08.906Z,7.73
2018-03-11T14:19:38.166Z,7.10
2018-03-11T14:22:07.290Z,6.40
2018-03-11T14:24:36.326Z,5.60
2018-03-11T14:27:05.394Z,5.33
2018-03-11T14:29:34.606Z,5.30
2018-03-11T14:32:03.671Z,5.80
2018-03-11T14:34:32.741Z,6.75
2018-03-11T14:37:01.808Z,7.03
2018-03-11T14:39:31.898Z,7.13
2018-03-11T14:42:00.986Z,5.97
2018-03-11T14:44:30.076Z,6.83
2018-03-11T14:46:59.169Z,6.63
2018-03-11T14:49:29.136Z,7.03
2018-03-11T14:51:58.231Z,6.60
2018-03-11T14:54:27.357Z,6.70
2018-03-11T14:56:56.434Z,6.83
2018-03-11T14:59:26.317Z,6.80
2018-03-11T15:01:56.159Z,6.23
2018-03-11T15:04:25.258Z,9.23
2018-03-11T15:06:54.361Z,9.50
2018-03-11T15:09:23.434Z,11.20
2018-03-11T15:11:52.582Z,10.10
2018-03-11T15:14:21.699Z,8.20
2018-03-11T15:16:50.777Z,5.43
2018-03-11T15:19:19.901Z,5.80
2018-03-11T15:21:48.990Z,5.60
2018-03-11T15:24:18.098Z,4.80
2018-03-11T15:26:47.161Z,4.30
2018-03-11T15:29:16.234Z,4.27
2018-03-11T15:31:45.331Z,4.80
2018-03-11T15:34:14.421Z,6.10
2018-03-11T15:36:44.294Z,5.47
2018-03-11T15:39:13.365Z,5.47
2018-03-11T15:41:43.197Z,6.60
2018-03-11T15:44:12.262Z,4.60
2018-03-11T15:46:41.334Z,4.90
2018-03-11T15:49:10.414Z,5.27
2018-03-11T15:51:40.246Z,6.27
2018-03-11T15:54:10.083Z,5.60
2018-03-11T15:56:39.150Z,5.60
2018-03-11T15:59:08.226Z,8.30
2018-03-11T16:01:37.310Z,18.10
2018-03-11T16:04:06.541Z,43.23
2018-03-11T16:06:35.662Z,26.20
2018-03-11T16:09:04.774Z,13.63
2018-03-11T16:11:33.867Z,12.37
2018-03-11T16:14:02.944Z,11.00
2018-03-11T16:16:32.946Z,9.43
2018-03-11T16:19:02.016Z,7.57
2018-03-11T16:21:31.084Z,8.20
2018-03-11T16:24:00.186Z,8.33
2018-03-11T16:26:29.257Z,24.77
2018-03-11T16:28:58.408Z,33.57
2018-03-11T16:31:27.494Z,25.40
2018-03-11T16:33:56.594Z,21.90
2018-03-11T16:36:25.677Z,15.17
2018-03-11T16:38:54.759Z,10.40
2018-03-11T16:41:23.860Z,7.93
2018-03-11T16:43:52.934Z,7.70
2018-03-11T16:46:22.034Z,7.13
2018-03-11T16:48:51.104Z,7.10
2018-03-11T16:51:20.204Z,7.10
2018-03-11T16:53:49.348Z,6.30
2018-03-11T16:56:19.185Z,6.83
2018-03-11T16:58:48.256Z,7.50
2018-03-11T17:01:17.406Z,7.20
2018-03-11T17:03:46.470Z,7.20
2018-03-11T17:06:15.541Z,6.77
2018-03-11T17:08:44.612Z,7.43
2018-03-11T17:11:14.510Z,13.30
2018-03-11T17:13:43.578Z,8.90
2018-03-11T17:16:12.709Z,5.90
2018-03-11T17:18:41.818Z,6.80
2018-03-11T17:21:10.922Z,6.00
2018-03-11T17:23:39.990Z,6.17
2018-03-11T17:26:09.852Z,6.90
2018-03-11T17:28:38.929Z,10.20
2018-03-11T17:31:08.845Z,15.90
2018-03-11T17:33:37.922Z,22.90
2018-03-11T17:36:06.997Z,18.13
2018-03-11T17:38:36.114Z,15.00
2018-03-11T17:41:05.193Z,20.27
2018-03-11T17:43:35.061Z,25.50
2018-03-11T17:46:04.146Z,23.47
2018-03-11T17:48:34.078Z,24.40
2018-03-11T17:51:03.161Z,26.10
2018-03-11T17:53:32.278Z,24.03
2018-03-11T17:56:01.352Z,26.00
2018-03-11T17:58:30.431Z,24.83
2018-03-11T18:00:59.514Z,26.20
2018-03-11T18:03:29.721Z,36.03
2018-03-11T18:05:58.803Z,38.10
2018-03-11T18:08:27.920Z,51.70
2018-03-11T18:10:57.010Z,63.42
2018-03-11T18:13:26.150Z,69.75
2018-03-11T18:15:55.237Z,93.12
2018-03-11T18:18:24.331Z,79.43
2018-03-11T18:20:53.474Z,50.85
2018-03-11T18:23:22.558Z,41.05
2018-03-11T18:25:51.708Z,144.43
2018-03-11T18:28:20.798Z,57.67
2018-03-11T18:30:49.882Z,35.53
2018-03-11T18:33:18.998Z,31.37
2018-03-11T18:35:48.160Z,23.62
2018-03-11T18:38:17.248Z,21.92
2018-03-11T18:40:46.326Z,23.45
2018-03-11T18:43:15.410Z,28.85
2018-03-11T18:45:45.254Z,26.77
2018-03-11T18:48:14.338Z,29.30
2018-03-11T18:50:43.422Z,28.27
2018-03-11T18:53:12.505Z,28.20
2018-03-11T18:55:41.590Z,26.55
2018-03-11T18:58:11.439Z,25.25
2018-03-11T19:00:40.518Z,20.05
2018-03-11T19:03:10.486Z,17.05
2018-03-11T19:05:39.561Z,22.70
2018-03-11T19:08:09.443Z,21.48
2018-03-11T19:10:38.521Z,23.40
2018-03-11T19:13:07.627Z,33.15
2018-03-11T19:15:36.742Z,32.67
2018-03-11T19:18:05.883Z,21.75
2018-03-11T19:20:34.935Z,20.15
2018-03-11T19:23:04.786Z,18.87
2018-03-11T19:25:33.861Z,11.57
2018-03-11T19:28:02.938Z,11.27
2018-03-11T19:30:32.011Z,11.18
2018-03-11T19:33:01.888Z,11.05
2018-03-11T19:35:30.988Z,12.65
2018-03-11T19:38:00.066Z,11.00
2018-03-11T19:40:29.211Z,10.85
2018-03-11T19:42:58.294Z,12.73
2018-03-11T19:45:27.366Z,12.52
2018-03-11T19:47:56.490Z,12.60
2018-03-11T19:50:26.331Z,12.32
2018-03-11T19:52:55.408Z,11.40
2018-03-11T19:55:24.493Z,10.80
2018-03-11T19:57:53.566Z,10.95
2018-03-11T20:00:22.634Z,11.93
2018-03-11T20:02:51.711Z,10.90
2018-03-11T20:05:20.786Z,11.65
2018-03-11T20:07:50.630Z,11.55
2018-03-11T20:10:19.763Z,10.70
2018-03-11T20:12:48.917Z,11.90
2018-03-11T20:15:17.990Z,12.60
2018-03-11T20:17:47.061Z,13.20
2018-03-11T20:20:16.199Z,12.50
2018-03-11T20:22:45.266Z,11.95
2018-03-11T20:25:15.146Z,13.30
2018-03-11T20:27:44.227Z,12.68
2018-03-11T20:30:13.350Z,12.45
2018-03-11T20:32:42.414Z,11.65
2018-03-11T20:35:11.479Z,13.35
2018-03-11T20:37:40.583Z,12.63
2018-03-11T20:40:09.647Z,13.85
2018-03-11T20:42:38.713Z,13.50
2018-03-11T20:45:07.774Z,12.85
2018-03-11T20:47:37.614Z,11.68
2018-03-11T20:50:07.446Z,13.05
2018-03-11T20:52:37.353Z,12.90
2018-03-11T20:55:06.413Z,12.55
2018-03-11T20:57:35.473Z,13.77
2018-03-11T21:00:04.545Z,12.52
2018-03-11T21:02:33.634Z,15.10
2018-03-11T21:05:02.703Z,16.75
2018-03-11T21:07:32.593Z,14.85
2018-03-11T21:10:01.657Z,18.08
2018-03-11T21:12:31.597Z,15.95
2018-03-11T21:15:00.663Z,17.33
2018-03-11T21:17:29.731Z,17.30
2018-03-11T21:19:58.829Z,17.30
2018-03-11T21:22:27.897Z,20.27
2018-03-11T21:24:56.959Z,18.92
2018-03-11T21:27:26.277Z,17.50
2018-03-11T21:29:55.338Z,16.40
2018-03-11T21:32:24.410Z,15.57
2018-03-11T21:34:53.469Z,13.68
2018-03-11T21:37:23.298Z,12.73
2018-03-11T21:39:53.129Z,13.15
2018-03-11T21:42:22.960Z,14.63
2018-03-11T21:44:52.785Z,14.48
2018-03-11T21:47:22.609Z,12.70
2018-03-11T21:49:52.438Z,14.18
2018-03-11T21:52:22.265Z,13.90
2018-03-11T21:54:52.090Z,14.18
2018-03-11T21:57:21.918Z,13.95
2018-03-11T21:59:51.746Z,13.07
2018-03-11T22:02:21.578Z,13.43
2018-03-11T22:04:51.450Z,12.40
2018-03-11T22:07:20.514Z,14.25
2018-03-11T22:09:50.342Z,14.32
2018-03-11T22:12:20.171Z,14.07
2018-03-11T22:14:50.002Z,14.27
2018-03-11T22:17:19.927Z,13.15
2018-03-11T22:19:49.755Z,14.02
2018-03-11T22:22:19.582Z,14.23
2018-03-11T22:24:49.446Z,13.15
2018-03-11T22:27:18.509Z,14.27
2018-03-11T22:29:47.603Z,14.90
2018-03-11T22:32:16.672Z,15.02
2018-03-11T22:34:47.537Z,15.52
2018-03-11T22:37:16.605Z,14.85
2018-03-11T22:39:46.482Z,15.00
2018-03-11T22:42:16.314Z,14.40
2018-03-11T22:44:45.377Z,13.82
2018-03-11T22:47:14.507Z,13.70
2018-03-11T22:49:43.570Z,15.02
2018-03-11T22:52:12.699Z,16.30
2018-03-11T22:54:42.533Z,15.25
2018-03-11T22:57:12.366Z,15.45
2018-03-11T22:59:41.457Z,15.38
2018-03-11T23:02:11.318Z,15.50
2018-03-11T23:04:40.378Z,15.25
2018-03-11T23:07:09.469Z,17.70
2018-03-11T23:09:38.638Z,16.60
2018-03-11T23:12:07.702Z,16.85
2018-03-11T23:14:36.762Z,18.65
2018-03-11T23:17:05.835Z,16.98
2018-03-11T23:19:34.931Z,16.50
2018-03-11T23:22:04.022Z,17.60
2018-03-11T23:24:33.126Z,18.30
2018-03-11T23:27:02.190Z,19.65
2018-03-11T23:29:32.018Z,19.27
2018-03-11T23:32:01.883Z,19.12
2018-03-11T23:34:30.946Z,19.15
2018-03-11T23:37:00.109Z,18.33
2018-03-11T23:39:29.194Z,18.83
2018-03-11T23:41:58.305Z,18.75
2018-03-11T23:44:27.367Z,16.80
2018-03-11T23:46:56.429Z,18.73
2018-03-11T23:49:25.775Z,17.77
2018-03-11T23:51:54.840Z,15.65
2018-03-11T23:54:24.665Z,16.62
2018-03-11T23:56:54.566Z,17.65
2018-03-11T23:59:23.825Z,18.20
